Terminal Aerodrome Forecast
Issued by NWS Bismarck, ND

Home | Current Version | Previous Version | Text Only | Print | Product List | Glossary Off
Versions: 1 2 3 4 5 6 7 8 9 10 11 12 13 14 15 16 17

000
FTUS43 KBIS 312300
TAFBIS
TAF
KBIS 312338Z 0100/0124 32008KT P6SM VCTS BKN060CB
     FM010100 32008KT P6SM BKN060
     FM011800 31010G16KT P6SM BKN050=

USA.gov is the U.S. government's official web portal to all federal, state and local government web resources and services.